WXM80 ListenWXM80 Stop

You find our weather info also at:

UK Metoffice

WeatherCloud

Weather Underground

Northeastern Weather Network

AWEKAS

Citizen Weather Observer Program (CWOP)

HAMweather, WeatherForYou, PWS Weather


Weather Underground History page Text

Daily Summary for January 31, 2016 Units:  English    Metric   Both
« Previous Day
Next Day »
Daily Weekly Monthly Yearly Custom
  High: Low: Average:
Temperature: 55.8 °F 35.8 °F 44.1 °F
Dew Point: 42.0 °F 29.9 °F 34.7 °F
Humidity: 88 % 44 % 71 %
Wind Speed: 7.3 mph 0.0 mph 2.7 mph
Wind Gust: 11.5 mph - -
Wind:- - SSW
Pressure: 29.97 in 29.76 in -
Precipitation: 0.00 in    
Historical Graphs
 
 
Tabular Data for January 31, 2016
Time Temperature Dew Point Pressure Wind Wind Speed Wind Gust Humidity Rainfall Rate (Hourly)
00:01 37.6 °F 30.1 °F 29.97 in SSW 3.6 mph 5.8 mph 74 % 0.00 in
00:06 37.6 °F 30.4 °F 29.97 in WSW 4.7 mph 8.1 mph 75 % 0.00 in
00:11 37.5 °F 30.3 °F 29.97 in SW 7.0 mph 10.4 mph 75 % 0.00 in
00:16 37.5 °F 30.3 °F 29.96 in SW 2.5 mph 5.8 mph 75 % 0.00 in
00:21 37.5 °F 30.3 °F 29.96 in SW 4.3 mph 5.0 mph 75 % 0.00 in
00:27 37.4 °F 30.2 °F 29.97 in SW 3.7 mph 6.9 mph 75 % 0.00 in
00:32 37.4 °F 30.2 °F 29.97 in SSW 4.6 mph 6.9 mph 75 % 0.00 in
00:37 37.3 °F 30.1 °F 29.96 in SW 3.0 mph 6.9 mph 75 % 0.00 in
00:42 37.3 °F 30.1 °F 29.97 in WSW 3.8 mph 6.9 mph 75 % 0.00 in
00:47 37.3 °F 30.1 °F 29.96 in WSW 2.2 mph 5.0 mph 75 % 0.00 in
00:52 37.4 °F 30.2 °F 29.97 in SSW 2.2 mph 4.0 mph 75 % 0.00 in
00:57 37.4 °F 30.2 °F 29.96 in SW 4.5 mph 10.4 mph 75 % 0.00 in
01:02 37.4 °F 30.2 °F 29.96 in SSW 4.1 mph 9.0 mph 75 % 0.00 in
01:07 37.3 °F 30.1 °F 29.96 in SSW 4.2 mph 6.9 mph 75 % 0.00 in
01:12 37.3 °F 30.1 °F 29.95 in SW 2.6 mph 8.1 mph 75 % 0.00 in
01:18 37.3 °F 30.1 °F 29.96 in SSW 4.9 mph 5.8 mph 75 % 0.00 in
01:23 37.3 °F 30.1 °F 29.96 in SSW 4.6 mph 10.4 mph 75 % 0.00 in
01:28 37.3 °F 30.1 °F 29.95 in WSW 5.0 mph 9.2 mph 75 % 0.00 in
01:38 37.4 °F 30.5 °F 29.96 in South 5.7 mph 8.1 mph 76 % 0.00 in
01:48 37.5 °F 30.6 °F 29.96 in WSW 3.6 mph 8.0 mph 76 % 0.00 in
01:53 37.5 °F 30.6 °F 29.96 in SSW 3.0 mph 4.6 mph 76 % 0.00 in
01:58 37.5 °F 30.6 °F 29.96 in SSW 4.0 mph 5.8 mph 76 % 0.00 in
02:03 37.5 °F 30.6 °F 29.96 in SW 4.8 mph 8.1 mph 76 % 0.00 in
02:09 37.6 °F 31.0 °F 29.96 in SW 4.1 mph 9.0 mph 77 % 0.00 in
02:14 37.6 °F 31.0 °F 29.95 in SW 3.2 mph 5.8 mph 77 % 0.00 in
02:19 37.6 °F 31.0 °F 29.95 in SW 1.2 mph 3.0 mph 77 % 0.00 in
02:24 37.6 °F 31.0 °F 29.95 in SW 3.5 mph 5.8 mph 77 % 0.00 in
02:29 37.6 °F 31.0 °F 29.95 in South 2.2 mph 4.0 mph 77 % 0.00 in
02:34 37.5 °F 30.9 °F 29.95 in South 3.1 mph 6.9 mph 77 % 0.00 in
02:39 37.5 °F 30.9 °F 29.95 in WSW 1.5 mph 3.0 mph 77 % 0.00 in
02:44 37.5 °F 30.9 °F 29.95 in SSE 4.0 mph 5.8 mph 77 % 0.00 in
02:49 37.4 °F 30.8 °F 29.94 in South 0.7 mph 4.6 mph 77 % 0.00 in
02:54 37.3 °F 31.1 °F 29.94 in SW 4.4 mph 6.9 mph 78 % 0.00 in
03:00 37.2 °F 31.0 °F 29.94 in SW 2.2 mph 3.5 mph 78 % 0.00 in
03:05 37.2 °F 31.0 °F 29.94 in SW 1.3 mph 3.5 mph 78 % 0.00 in
03:10 37.1 °F 30.9 °F 29.94 in SW 1.0 mph 3.5 mph 78 % 0.00 in
03:15 37.0 °F 30.8 °F 29.94 in SSW 1.3 mph 4.6 mph 78 % 0.00 in
03:25 36.9 °F 30.7 °F 29.94 in SW 0.8 mph 3.5 mph 78 % 0.00 in
03:30 36.8 °F 30.9 °F 29.94 in SW 3.7 mph 5.8 mph 79 % 0.00 in
03:35 36.7 °F 30.8 °F 29.93 in SSW 3.7 mph 5.8 mph 79 % 0.00 in
03:40 36.6 °F 30.7 °F 29.93 in SW 1.8 mph 3.5 mph 79 % 0.00 in
03:45 36.6 °F 30.7 °F 29.93 in SW 3.7 mph 4.0 mph 79 % 0.00 in
03:51 36.5 °F 30.6 °F 29.93 in SSW 2.2 mph 4.0 mph 79 % 0.00 in
03:56 36.4 °F 30.5 °F 29.93 in WSW 0.5 mph 3.5 mph 79 % 0.00 in
04:01 36.4 °F 30.5 °F 29.93 in SW 1.1 mph 4.6 mph 79 % 0.00 in
04:06 36.3 °F 30.4 °F 29.93 in SW 2.6 mph 4.0 mph 79 % 0.00 in
04:11 36.2 °F 30.3 °F 29.93 in SW 3.3 mph 5.0 mph 79 % 0.00 in
04:16 36.1 °F 30.2 °F 29.93 in SW 2.3 mph 3.5 mph 79 % 0.00 in
04:21 36.1 °F 30.2 °F 29.92 in SW 2.3 mph 3.5 mph 79 % 0.00 in
04:26 36.1 °F 30.2 °F 29.93 in WSW 2.5 mph 4.6 mph 79 % 0.00 in
04:31 36.0 °F 30.1 °F 29.92 in SSW 0.7 mph 3.5 mph 79 % 0.00 in
04:36 36.0 °F 30.1 °F 29.93 in SSW 0.1 mph 1.2 mph 79 % 0.00 in
04:42 35.9 °F 30.0 °F 29.92 in SSW 0.1 mph 1.2 mph 79 % 0.00 in
04:47 35.9 °F 30.0 °F 29.93 in SSW 0.2 mph 2.3 mph 79 % 0.00 in
04:52 35.9 °F 30.0 °F 29.92 in SSW 0.8 mph 3.5 mph 79 % 0.00 in
04:57 35.8 °F 29.9 °F 29.92 in Calm   1.2 mph 79 % 0.00 in
05:02 35.8 °F 29.9 °F 29.92 in SW 3.5 mph 5.8 mph 79 % 0.00 in
05:07 35.8 °F 29.9 °F 29.92 in South 1.1 mph 3.0 mph 79 % 0.00 in
05:12 35.8 °F 30.2 °F 29.92 in SW 2.4 mph 3.5 mph 80 % 0.00 in
05:17 35.9 °F 30.0 °F 29.92 in West 0.4 mph 2.3 mph 79 % 0.00 in
05:22 35.9 °F 30.0 °F 29.92 in SW 0.2 mph 1.2 mph 79 % 0.00 in
05:27 36.0 °F 30.1 °F 29.92 in Calm   1.2 mph 79 % 0.00 in
05:33 36.0 °F 30.1 °F 29.93 in SSW 1.8 mph 3.5 mph 79 % 0.00 in
05:38 36.0 °F 30.1 °F 29.93 in SW 0.3 mph 2.3 mph 79 % 0.00 in
05:48 36.0 °F 30.1 °F 29.93 in SW 2.3 mph 3.5 mph 79 % 0.00 in
05:53 36.0 °F 30.1 °F 29.93 in SSW 1.0 mph 3.5 mph 79 % 0.00 in
05:58 36.0 °F 30.1 °F 29.93 in SSW 1.4 mph 3.5 mph 79 % 0.00 in
06:03 36.0 °F 30.1 °F 29.93 in SSW 0.8 mph 3.0 mph 79 % 0.00 in
06:08 36.0 °F 30.1 °F 29.94 in SSW 2.6 mph 3.5 mph 79 % 0.00 in
06:13 36.1 °F 30.2 °F 29.94 in SSW 2.3 mph 4.6 mph 79 % 0.00 in
06:18 36.1 °F 30.2 °F 29.94 in SW 1.3 mph 3.0 mph 79 % 0.00 in
06:24 36.1 °F 30.2 °F 29.95 in WSW 4.3 mph 6.9 mph 79 % 0.00 in
06:29 36.2 °F 30.3 °F 29.94 in SW 0.5 mph 2.3 mph 79 % 0.00 in
06:34 36.3 °F 30.4 °F 29.94 in Calm   1.2 mph 79 % 0.00 in
06:39 36.3 °F 30.4 °F 29.94 in SW 0.2 mph 2.3 mph 79 % 0.00 in
06:44 36.3 °F 30.4 °F 29.94 in SSW 2.8 mph 3.5 mph 79 % 0.00 in
06:49 36.3 °F 30.4 °F 29.94 in SSW 1.8 mph 3.5 mph 79 % 0.00 in
06:54 36.3 °F 30.4 °F 29.94 in SSW 1.0 mph 2.3 mph 79 % 0.00 in
07:04 36.3 °F 30.4 °F 29.95 in WSW 1.1 mph 3.5 mph 79 % 0.00 in
07:09 36.3 °F 30.4 °F 29.94 in SSW 0.2 mph 2.3 mph 79 % 0.00 in
07:15 36.3 °F 30.4 °F 29.94 in SSW 0.7 mph 3.5 mph 79 % 0.00 in
07:20 36.4 °F 30.5 °F 29.95 in SW 3.5 mph 3.5 mph 79 % 0.00 in
07:25 36.4 °F 30.5 °F 29.95 in SW 2.6 mph 4.0 mph 79 % 0.00 in
07:30 36.4 °F 30.5 °F 29.95 in SW 1.6 mph 3.5 mph 79 % 0.00 in
07:35 36.5 °F 30.6 °F 29.95 in SSW 1.7 mph 3.5 mph 79 % 0.00 in
07:40 36.6 °F 30.7 °F 29.95 in SSW 2.9 mph 4.6 mph 79 % 0.00 in
07:45 36.8 °F 30.9 °F 29.95 in SW 1.8 mph 3.5 mph 79 % 0.00 in
07:55 37.1 °F 30.9 °F 29.95 in SW 2.7 mph 4.6 mph 78 % 0.00 in
08:00 37.3 °F 31.1 °F 29.96 in SW 4.0 mph 5.8 mph 78 % 0.00 in
08:06 37.7 °F 31.5 °F 29.95 in SSW 2.4 mph 8.1 mph 78 % 0.00 in
08:11 38.0 °F 31.4 °F 29.95 in SW 3.1 mph 5.0 mph 77 % 0.00 in
08:16 38.5 °F 31.9 °F 29.95 in SW 6.5 mph 10.4 mph 77 % 0.00 in
08:21 38.9 °F 32.0 °F 29.95 in WSW 5.2 mph 8.1 mph 76 % 0.00 in
08:26 39.4 °F 32.1 °F 29.95 in SW 4.6 mph 6.9 mph 75 % 0.00 in
08:31 39.8 °F 32.2 °F 29.95 in SSW 3.8 mph 5.8 mph 74 % 0.00 in
08:36 40.3 °F 32.3 °F 29.95 in SSW 4.6 mph 5.8 mph 73 % 0.00 in
08:51 41.3 °F 32.2 °F 29.95 in SW 4.1 mph 6.9 mph 70 % 0.00 in
08:57 41.7 °F 32.3 °F 29.95 in SW 5.6 mph 9.2 mph 69 % 0.00 in
09:07 42.3 °F 32.5 °F 29.94 in SW 4.6 mph 5.8 mph 68 % 0.00 in
09:12 42.7 °F 32.5 °F 29.94 in SSW 4.8 mph 8.1 mph 67 % 0.00 in
09:17 43.2 °F 32.6 °F 29.94 in WSW 6.7 mph 10.4 mph 66 % 0.00 in
09:22 43.7 °F 32.7 °F 29.95 in SW 5.4 mph 8.0 mph 65 % 0.00 in
09:27 44.3 °F 32.5 °F 29.95 in SW 6.7 mph 9.2 mph 63 % 0.00 in
09:32 44.8 °F 33.0 °F 29.95 in SW 4.7 mph 9.2 mph 63 % 0.00 in
09:37 45.1 °F 32.8 °F 29.95 in SSW 4.2 mph 6.9 mph 62 % 0.00 in
09:42 45.4 °F 32.7 °F 29.95 in South 4.0 mph 6.9 mph 61 % 0.00 in
09:48 45.8 °F 33.1 °F 29.95 in SW 4.6 mph 5.8 mph 61 % 0.00 in
09:53 46.4 °F 32.8 °F 29.94 in WSW 5.7 mph 9.2 mph 59 % 0.00 in
09:58 46.8 °F 32.8 °F 29.94 in SW 7.0 mph 9.2 mph 58 % 0.00 in
10:03 47.1 °F 33.1 °F 29.94 in SSW 6.3 mph 7.0 mph 58 % 0.00 in
10:08 47.4 °F 32.9 °F 29.95 in SSW 3.9 mph 5.8 mph 57 % 0.00 in
10:13 47.9 °F 33.4 °F 29.94 in SSW 2.5 mph 5.0 mph 57 % 0.00 in
10:18 48.6 °F 33.1 °F 29.94 in SSW 4.9 mph 6.9 mph 55 % 0.00 in
10:23 49.2 °F 33.3 °F 29.95 in SSW 4.7 mph 6.0 mph 54 % 0.00 in
10:28 49.7 °F 33.7 °F 29.95 in SW 3.0 mph 5.8 mph 54 % 0.00 in
10:34 50.3 °F 33.8 °F 29.94 in SW 4.8 mph 6.9 mph 53 % 0.00 in
10:39 50.8 °F 33.3 °F 29.94 in SW 4.1 mph 8.1 mph 51 % 0.00 in
10:44 51.2 °F 33.7 °F 29.93 in SSW 0.7 mph 3.5 mph 51 % 0.00 in
10:49 51.6 °F 33.6 °F 29.93 in SW 3.6 mph 8.1 mph 50 % 0.00 in
10:54 51.8 °F 33.2 °F 29.93 in SSW 4.7 mph 6.9 mph 49 % 0.00 in
10:59 52.0 °F 32.9 °F 29.93 in South 1.9 mph 5.0 mph 48 % 0.00 in
11:04 52.4 °F 33.3 °F 29.92 in SSW 5.1 mph 6.9 mph 48 % 0.00 in
11:09 52.7 °F 33.0 °F 29.92 in SSE 1.2 mph 4.6 mph 47 % 0.00 in
11:14 52.8 °F 33.1 °F 29.92 in SSW 2.2 mph 3.5 mph 47 % 0.00 in
11:19 52.8 °F 33.1 °F 29.91 in South 3.2 mph 5.8 mph 47 % 0.00 in
11:25 52.9 °F 33.2 °F 29.92 in SSW 3.7 mph 6.9 mph 47 % 0.00 in
11:30 53.0 °F 32.8 °F 29.92 in SW 3.8 mph 6.9 mph 46 % 0.00 in
11:35 53.1 °F 33.9 °F 29.92 in West 2.6 mph 4.0 mph 48 % 0.00 in
11:40 53.0 °F 33.3 °F 29.92 in NW 2.2 mph 4.0 mph 47 % 0.00 in
11:45 52.7 °F 35.1 °F 29.92 in NNW 3.2 mph 4.6 mph 51 % 0.00 in
11:50 52.1 °F 35.0 °F 29.91 in NW 3.3 mph 4.6 mph 52 % 0.00 in
11:55 51.3 °F 34.7 °F 29.91 in NW 2.3 mph 3.5 mph 53 % 0.00 in
12:00 50.3 °F 34.3 °F 29.90 in NW 2.7 mph 4.6 mph 54 % 0.00 in
12:05 49.5 °F 34.4 °F 29.90 in WNW 3.8 mph 4.6 mph 56 % 0.00 in
12:10 49.0 °F 34.4 °F 29.90 in WNW 2.5 mph 3.5 mph 57 % 0.00 in
12:16 48.6 °F 34.5 °F 29.90 in WNW 2.0 mph 3.5 mph 58 % 0.00 in
12:21 48.3 °F 34.2 °F 29.90 in WNW 2.2 mph 4.6 mph 58 % 0.00 in
12:26 48.3 °F 34.2 °F 29.90 in WNW 2.5 mph 3.5 mph 58 % 0.00 in
12:31 48.5 °F 34.8 °F 29.90 in WNW 2.8 mph 5.8 mph 59 % 0.00 in
12:36 48.7 °F 34.6 °F 29.89 in WNW 1.6 mph 3.5 mph 58 % 0.00 in
12:41 49.0 °F 34.9 °F 29.89 in WNW 2.3 mph 3.5 mph 58 % 0.00 in
12:46 49.3 °F 34.7 °F 29.89 in WNW 2.9 mph 3.5 mph 57 % 0.00 in
12:51 49.8 °F 36.0 °F 29.88 in East 1.0 mph 3.5 mph 59 % 0.00 in
12:56 50.1 °F 35.9 °F 29.88 in ENE 0.4 mph 2.3 mph 58 % 0.00 in
13:01 50.1 °F 35.9 °F 29.88 in ENE 1.3 mph 2.3 mph 58 % 0.00 in
13:07 50.4 °F 36.2 °F 29.87 in ENE 0.8 mph 2.3 mph 58 % 0.00 in
13:12 50.6 °F 36.8 °F 29.87 in ENE 1.2 mph 3.5 mph 59 % 0.00 in
13:17 50.9 °F 36.2 °F 29.87 in ENE 1.5 mph 2.3 mph 57 % 0.00 in
13:22 51.0 °F 36.3 °F 29.87 in NE 2.5 mph 3.5 mph 57 % 0.00 in
13:27 51.0 °F 36.3 °F 29.87 in Calm   2.3 mph 57 % 0.00 in
13:32 51.2 °F 36.5 °F 29.86 in East 0.2 mph 1.2 mph 57 % 0.00 in
13:37 51.3 °F 37.0 °F 29.86 in East 0.5 mph 2.3 mph 58 % 0.00 in
13:47 52.2 °F 36.5 °F 29.86 in East 1.7 mph 2.3 mph 55 % 0.00 in
13:52 52.3 °F 36.6 °F 29.85 in SW 3.5 mph 5.8 mph 55 % 0.00 in
13:58 52.6 °F 34.5 °F 29.85 in SSW 5.8 mph 7.0 mph 50 % 0.00 in
14:03 53.2 °F 34.5 °F 29.85 in SW 4.1 mph 6.9 mph 49 % 0.00 in
14:08 53.8 °F 34.6 °F 29.85 in SSW 1.6 mph 4.0 mph 48 % 0.00 in
14:13 54.3 °F 34.5 °F 29.85 in WSW 3.3 mph 4.6 mph 47 % 0.00 in
14:23 55.3 °F 35.9 °F 29.85 in SSW 3.1 mph 5.8 mph 48 % 0.00 in
14:28 55.5 °F 34.5 °F 29.85 in SW 2.9 mph 4.0 mph 45 % 0.00 in
14:38 55.6 °F 34.0 °F 29.85 in SW 4.9 mph 8.1 mph 44 % 0.00 in
14:49 55.7 °F 34.1 °F 29.85 in WSW 2.0 mph 5.8 mph 44 % 0.00 in
14:54 55.8 °F 34.2 °F 29.85 in SSW 3.5 mph 8.1 mph 44 % 0.00 in
14:59 55.7 °F 34.1 °F 29.85 in SSW 0.8 mph 4.6 mph 44 % 0.00 in
15:04 55.6 °F 36.7 °F 29.85 in NE 1.2 mph 3.5 mph 49 % 0.00 in
15:09 54.5 °F 35.7 °F 29.84 in NE 0.9 mph 3.5 mph 49 % 0.00 in
15:14 53.5 °F 36.3 °F 29.84 in NE 1.1 mph 3.5 mph 52 % 0.00 in
15:19 52.9 °F 34.8 °F 29.84 in SW 5.0 mph 8.1 mph 50 % 0.00 in
15:24 52.7 °F 34.1 °F 29.84 in SSW 2.9 mph 4.0 mph 49 % 0.00 in
15:29 52.8 °F 34.7 °F 29.84 in SSW 1.7 mph 4.6 mph 50 % 0.00 in
15:34 52.8 °F 34.7 °F 29.84 in South 2.5 mph 5.8 mph 50 % 0.00 in
15:40 53.0 °F 34.3 °F 29.84 in South 1.0 mph 3.5 mph 49 % 0.00 in
15:45 53.2 °F 34.5 °F 29.84 in South 1.3 mph 5.8 mph 49 % 0.00 in
15:50 53.2 °F 34.5 °F 29.84 in South 2.7 mph 4.6 mph 49 % 0.00 in
15:55 53.2 °F 35.0 °F 29.84 in South 2.9 mph 5.8 mph 50 % 0.00 in
16:00 53.1 °F 34.9 °F 29.85 in South 4.1 mph 4.6 mph 50 % 0.00 in
16:05 53.0 °F 34.8 °F 29.84 in SSW 2.3 mph 5.8 mph 50 % 0.00 in
16:10 52.8 °F 35.2 °F 29.84 in SSW 2.2 mph 4.0 mph 51 % 0.00 in
16:15 52.6 °F 35.0 °F 29.84 in South 2.8 mph 5.0 mph 51 % 0.00 in
16:20 52.4 °F 35.3 °F 29.84 in South 3.0 mph 5.8 mph 52 % 0.00 in
16:25 52.1 °F 35.0 °F 29.84 in South 2.6 mph 3.5 mph 52 % 0.00 in
16:31 51.8 °F 35.2 °F 29.85 in SSE 3.6 mph 5.8 mph 53 % 0.00 in
16:36 51.5 °F 35.4 °F 29.85 in SSE 0.9 mph 3.5 mph 54 % 0.00 in
16:46 50.6 °F 36.4 °F 29.85 in SSE 3.1 mph 5.8 mph 58 % 0.00 in
16:51 49.9 °F 36.6 °F 29.85 in SSW 3.5 mph 5.8 mph 60 % 0.00 in
16:56 49.4 °F 36.5 °F 29.85 in SSE 3.9 mph 5.8 mph 61 % 0.00 in
17:01 48.9 °F 36.4 °F 29.85 in SSE 1.1 mph 3.5 mph 62 % 0.00 in
17:06 48.5 °F 36.5 °F 29.85 in SSE 0.7 mph 3.5 mph 63 % 0.00 in
17:11 48.2 °F 36.2 °F 29.84 in South 1.5 mph 3.0 mph 63 % 0.00 in
17:16 47.9 °F 36.3 °F 29.84 in Calm   1.2 mph 64 % 0.00 in
17:21 47.6 °F 36.4 °F 29.85 in South 0.7 mph 2.0 mph 65 % 0.00 in
17:27 47.3 °F 36.1 °F 29.85 in SSW 0.5 mph 3.5 mph 65 % 0.00 in
17:32 47.0 °F 36.2 °F 29.84 in South 0.4 mph 3.5 mph 66 % 0.00 in
17:37 46.8 °F 36.0 °F 29.85 in SSW 0.1 mph 1.2 mph 66 % 0.00 in
17:42 46.4 °F 36.0 °F 29.84 in Calm   1.2 mph 67 % 0.00 in
17:47 46.2 °F 35.8 °F 29.84 in Calm     67 % 0.00 in
17:52 46.0 °F 35.7 °F 29.84 in Calm     67 % 0.00 in
17:57 45.8 °F 36.2 °F 29.84 in Calm     69 % 0.00 in
18:02 45.6 °F 36.7 °F 29.84 in SSW 0.5 mph 2.3 mph 71 % 0.00 in
18:07 45.4 °F 36.5 °F 29.84 in SSE 1.7 mph 3.5 mph 71 % 0.00 in
18:12 45.2 °F 36.7 °F 29.84 in South 0.4 mph 3.5 mph 72 % 0.00 in
18:18 45.1 °F 37.0 °F 29.83 in Calm     73 % 0.00 in
18:23 44.9 °F 37.5 °F 29.83 in South 2.1 mph 3.5 mph 75 % 0.00 in
18:28 44.7 °F 38.6 °F 29.83 in SW 0.6 mph 3.5 mph 79 % 0.00 in
18:38 44.6 °F 39.8 °F 29.82 in South 2.1 mph 3.5 mph 83 % 0.00 in
18:43 44.5 °F 39.7 °F 29.82 in South 2.6 mph 6.9 mph 83 % 0.00 in
18:48 44.4 °F 39.6 °F 29.82 in SSE 1.9 mph 3.5 mph 83 % 0.00 in
18:53 44.3 °F 39.5 °F 29.82 in South 0.3 mph 3.5 mph 83 % 0.00 in
18:58 44.2 °F 39.4 °F 29.82 in South 0.1 mph   83 % 0.00 in
19:04 44.2 °F 39.4 °F 29.82 in South 0.2 mph 1.2 mph 83 % 0.00 in
19:09 44.1 °F 39.9 °F 29.82 in South 0.6 mph 2.3 mph 85 % 0.00 in
19:14 44.1 °F 39.9 °F 29.81 in SSW 1.5 mph 3.5 mph 85 % 0.00 in
19:19 44.1 °F 40.2 °F 29.81 in SSW 2.0 mph 3.5 mph 86 % 0.00 in
19:24 44.1 °F 40.2 °F 29.81 in SSE 1.6 mph 3.5 mph 86 % 0.00 in
19:29 44.1 °F 40.2 °F 29.81 in South 2.3 mph 4.0 mph 86 % 0.00 in
19:34 44.0 °F 40.1 °F 29.82 in South 3.3 mph 5.8 mph 86 % 0.00 in
19:39 44.0 °F 40.1 °F 29.82 in South 1.9 mph 3.5 mph 86 % 0.00 in
19:44 43.9 °F 40.3 °F 29.82 in Calm   3.5 mph 87 % 0.00 in
19:49 43.9 °F 40.3 °F 29.82 in South 0.4 mph 3.5 mph 87 % 0.00 in
19:55 43.9 °F 40.6 °F 29.82 in South 2.8 mph 5.0 mph 88 % 0.00 in
20:00 43.9 °F 40.6 °F 29.82 in SSW 2.5 mph 3.5 mph 88 % 0.00 in
20:05 44.0 °F 40.7 °F 29.82 in SSW 4.0 mph 4.0 mph 88 % 0.00 in
20:10 44.1 °F 40.8 °F 29.82 in SSW 3.2 mph 5.8 mph 88 % 0.00 in
20:15 44.2 °F 40.9 °F 29.82 in South 4.1 mph 8.0 mph 88 % 0.00 in
20:20 44.4 °F 41.1 °F 29.82 in SW 3.1 mph 5.0 mph 88 % 0.00 in
20:25 44.6 °F 41.3 °F 29.82 in SSW 4.1 mph 6.9 mph 88 % 0.00 in
20:30 44.7 °F 41.1 °F 29.82 in SW 0.9 mph 3.0 mph 87 % 0.00 in
20:35 44.8 °F 41.2 °F 29.82 in SSW 1.9 mph 5.8 mph 87 % 0.00 in
20:40 44.9 °F 41.3 °F 29.82 in WSW 3.6 mph 5.8 mph 87 % 0.00 in
20:46 44.9 °F 41.3 °F 29.81 in South 3.4 mph 5.0 mph 87 % 0.00 in
20:51 45.0 °F 41.4 °F 29.81 in SSW 6.4 mph 10.4 mph 87 % 0.00 in
20:56 45.1 °F 41.2 °F 29.81 in SSW 4.1 mph 9.2 mph 86 % 0.00 in
21:01 45.1 °F 41.2 °F 29.81 in South 4.3 mph 6.9 mph 86 % 0.00 in
21:06 45.2 °F 41.3 °F 29.81 in SSW 4.5 mph 6.9 mph 86 % 0.00 in
21:11 45.2 °F 41.3 °F 29.81 in SSW 2.5 mph 4.6 mph 86 % 0.00 in
21:16 45.3 °F 41.4 °F 29.81 in South 2.9 mph 9.2 mph 86 % 0.00 in
21:21 45.4 °F 41.2 °F 29.81 in SSE 2.8 mph 5.8 mph 85 % 0.00 in
21:26 45.4 °F 41.2 °F 29.81 in SSW 3.6 mph 6.9 mph 85 % 0.00 in
21:31 45.5 °F 41.3 °F 29.80 in South 2.1 mph 3.5 mph 85 % 0.00 in
21:37 45.5 °F 40.9 °F 29.80 in South 2.8 mph 6.9 mph 84 % 0.00 in
21:47 45.7 °F 41.1 °F 29.79 in SSW 3.0 mph 4.6 mph 84 % 0.00 in
21:52 45.7 °F 41.1 °F 29.79 in South 3.8 mph 8.1 mph 84 % 0.00 in
21:57 45.8 °F 41.2 °F 29.79 in South 2.8 mph 5.8 mph 84 % 0.00 in
22:02 45.9 °F 41.3 °F 29.79 in SSE 3.5 mph 6.9 mph 84 % 0.00 in
22:07 46.0 °F 41.4 °F 29.79 in South 6.1 mph 11.5 mph 84 % 0.00 in
22:17 46.0 °F 41.4 °F 29.79 in SSW 3.5 mph 8.1 mph 84 % 0.00 in
22:22 46.0 °F 41.4 °F 29.78 in SSW 3.0 mph 5.8 mph 84 % 0.00 in
22:27 46.0 °F 41.7 °F 29.78 in SSW 3.1 mph 8.0 mph 85 % 0.00 in
22:33 45.9 °F 41.6 °F 29.78 in SSW 4.5 mph 8.1 mph 85 % 0.00 in
22:38 45.8 °F 41.5 °F 29.78 in SSW 5.0 mph 8.1 mph 85 % 0.00 in
22:43 45.7 °F 41.4 °F 29.78 in SSW 2.9 mph 6.9 mph 85 % 0.00 in
22:48 45.7 °F 41.4 °F 29.77 in South 4.3 mph 8.1 mph 85 % 0.00 in
22:53 45.6 °F 41.7 °F 29.77 in South 5.6 mph 10.4 mph 86 % 0.00 in
22:58 45.8 °F 41.9 °F 29.77 in SSW 3.1 mph 9.2 mph 86 % 0.00 in
23:03 46.0 °F 41.7 °F 29.77 in SSW 7.3 mph 11.5 mph 85 % 0.00 in
23:13 46.3 °F 41.7 °F 29.76 in SSW 2.4 mph 8.1 mph 84 % 0.00 in
23:18 46.5 °F 41.9 °F 29.76 in South 5.1 mph 11.5 mph 84 % 0.00 in
23:24 46.6 °F 41.7 °F 29.76 in South 3.6 mph 8.1 mph 83 % 0.00 in
23:29 46.7 °F 41.8 °F 29.76 in SSW 4.6 mph 11.0 mph 83 % 0.00 in
23:34 46.8 °F 41.9 °F 29.76 in South 5.5 mph 10.4 mph 83 % 0.00 in
23:39 46.8 °F 41.9 °F 29.76 in SSW 1.4 mph 6.0 mph 83 % 0.00 in
23:44 46.8 °F 41.9 °F 29.76 in SSW 5.1 mph 6.9 mph 83 % 0.00 in
23:49 46.8 °F 41.9 °F 29.77 in WSW 2.7 mph 6.9 mph 83 % 0.00 in
23:54 46.8 °F 41.9 °F 29.77 in WSW 3.9 mph 6.9 mph 83 % 0.00 in
23:59 46.9 °F 42.0 °F 29.77 in West 3.7 mph 9.2 mph 83 % 0.00 in
Crab Meadow Weather
Compliments of Weather Underground - 2.75 mb

Script developed by  Jim McMurry - jmcmurry@mwt.net Adapted for the template by  Wim van der Kuil - Leuven-Template.eu

Weather Terms: Wind Chill - An apparent temperature that describes the combined effect of wind and low temperature on exposed skin.